»·PEaware :: AEA291 KGEG-KSEA

AEA291 :: KGEG-KSEA

FLIGHT INFORMATION

Flight Status: Arrived
Operator:
Air Europa
More flights by this operator :: More flights under this callsign
Pilot: Alfonso U. (14209)
Aircraft: BOEING 737-800
(B738)
More flights by this aircraft type
Origin: KGEG Spokane Intl
United States
Destination: KSEA Seattle-Tacoma Intl
United States
More flights between these airports :: More routes between these airports
Route: +TEMPL GLASR1
File this flight plan on PilotEdge
Remarks:
Altitude:
(Current/Filed)
32,000ft
Speed:
(Current/Filed)
500kts
Departed: 09-Dec-17 10:00 AM
Arrived: 09-Dec-17 10:46 AM
Distance/Time
Traveled:
194nm/0:45
Distance/Time
To Go:
Arrived

Flight Plot

Page will automatically refresh every two minutes.

Flight plan parsing failed; only flown route is shown


Map Options




Map Legend


Flown Route
Filed Route
Departure Airport
Arrival Airport
Navaid (VOR, NDB)
Fix

Horizontal Profiles

Position Reports

Time Latitude Longitude Heading Altitude Ground
Speed
09-Dec-17 09:32 47.625598 -117.536907 222 2380ft 0kts
09-Dec-17 09:33 47.625598 -117.536907 222 2380ft 0kts
09-Dec-17 09:33 47.625598 -117.536907 222 2380ft 0kts
09-Dec-17 09:35 47.625598 -117.536907 222 2380ft 0kts
09-Dec-17 09:35 47.625598 -117.536907 222 2380ft 0kts
09-Dec-17 09:36 47.625598 -117.536907 222 2380ft 0kts
09-Dec-17 09:37 47.625598 -117.536907 222 2380ft 0kts
09-Dec-17 09:39 47.625598 -117.536907 222 2380ft 0kts
09-Dec-17 09:40 47.625598 -117.536907 222 2380ft 0kts
09-Dec-17 09:40 47.625598 -117.536907 222 2380ft 0kts
09-Dec-17 09:41 47.625598 -117.536907 222 2380ft 0kts
09-Dec-17 09:42 47.625598 -117.536907 222 2380ft 0kts
09-Dec-17 09:43 47.625598 -117.536907 222 2380ft 0kts
09-Dec-17 09:44 47.625598 -117.536907 222 2380ft 0kts
09-Dec-17 09:45 47.625598 -117.536907 222 2380ft 0kts
09-Dec-17 09:46 47.625598 -117.536907 222 2380ft 0kts
09-Dec-17 09:47 47.625598 -117.536907 222 2380ft 0kts
09-Dec-17 09:48 47.625714 -117.536749 222 2380ft 0kts
09-Dec-17 09:49 47.625714 -117.536749 222 2380ft 0kts
09-Dec-17 09:50 47.625712 -117.536751 222 2380ft 0kts
09-Dec-17 09:51 47.625712 -117.536752 222 2380ft 0kts
09-Dec-17 09:52 47.625711 -117.536753 222 2380ft 0kts
09-Dec-17 09:53 47.625710 -117.536754 222 2380ft 0kts
09-Dec-17 09:54 47.625709 -117.536756 222 2380ft 0kts
09-Dec-17 09:55 47.625708 -117.536757 222 2380ft 0kts
09-Dec-17 09:56 47.624608 -117.535718 144 2380ft 0kts
09-Dec-17 09:57 47.624115 -117.534101 108 2380ft 10kts
09-Dec-17 09:58 47.629664 -117.525206 45 2380ft 32kts
09-Dec-17 09:59 47.631663 -117.519373 134 2380ft 0kts
09-Dec-17 10:00 47.631663 -117.519373 134 2380ft 0kts
09-Dec-17 10:01 47.631663 -117.519373 134 2380ft 0kts
09-Dec-17 10:02 47.631663 -117.519373 134 2380ft 0kts
09-Dec-17 10:03 47.631663 -117.519373 134 2380ft 0kts
09-Dec-17 10:04 47.631663 -117.519373 134 2380ft 0kts
09-Dec-17 10:05 47.629281 -117.521139 225 2380ft 41kts
09-Dec-17 10:06 47.602455 -117.560764 221 3927ft 177kts
09-Dec-17 10:07 47.559136 -117.618810 221 4973ft 243kts
09-Dec-17 10:08 47.505396 -117.690946 223 5010ft 261kts
09-Dec-17 10:09 47.499819 -117.794678 280 7926ft 269kts
09-Dec-17 10:10 47.515308 -117.905023 281 11562ft 290kts
09-Dec-17 10:11 47.533438 -118.034435 281 12020ft 332kts
09-Dec-17 10:12 47.552034 -118.168105 281 12027ft 332kts
09-Dec-17 10:13 47.570868 -118.302188 281 12037ft 332kts
09-Dec-17 10:14 47.589785 -118.435811 281 12052ft 332kts
09-Dec-17 10:15 47.608373 -118.569839 280 12063ft 333kts
09-Dec-17 10:16 47.626926 -118.705508 280 12069ft 336kts
09-Dec-17 10:17 47.645288 -118.841252 280 12076ft 336kts
09-Dec-17 10:18 47.663517 -118.977363 280 12082ft 337kts
09-Dec-17 10:19 47.682033 -119.114170 280 12107ft 340kts
09-Dec-17 10:20 47.700198 -119.253020 279 15711ft 349kts
09-Dec-17 10:21 47.718773 -119.397537 279 18916ft 363kts
09-Dec-17 10:22 47.735928 -119.547898 275 21709ft 377kts
09-Dec-17 10:23 47.747761 -119.705168 275 24215ft 389kts
09-Dec-17 10:24 47.760424 -119.867995 275 26345ft 402kts
09-Dec-17 10:25 47.772941 -120.035343 275 28214ft 413kts
09-Dec-17 10:26 47.785523 -120.205319 276 29312ft 405kts
09-Dec-17 10:27 47.797767 -120.370242 276 31149ft 393kts
09-Dec-17 10:28 47.809603 -120.532668 275 32071ft 398kts
09-Dec-17 10:29 47.820785 -120.694634 275 32011ft 376kts
09-Dec-17 10:30 47.830772 -120.838314 275 31862ft 327kts
09-Dec-17 10:31 47.840562 -120.982070 274 28135ft 381kts
09-Dec-17 10:32 47.851556 -121.150623 273 23268ft 412kts
09-Dec-17 10:33 47.862577 -121.315954 273 19334ft 391kts
09-Dec-17 10:34 47.872490 -121.473203 272 15551ft 373kts
09-Dec-17 10:35 47.881574 -121.623635 273 12508ft 356kts
09-Dec-17 10:36 47.848722 -121.756753 226 12112ft 357kts
09-Dec-17 10:37 47.777822 -121.851003 223 12007ft 302kts
09-Dec-17 10:38 47.723669 -121.924412 223 11986ft 234kts
09-Dec-17 10:39 47.676795 -121.987453 223 11883ft 222kts
09-Dec-17 10:40 47.631817 -122.047703 222 11063ft 205kts
09-Dec-17 10:41 47.591837 -122.101139 222 10031ft 193kts
09-Dec-17 10:42 47.557566 -122.153093 250 9053ft 170kts
09-Dec-17 10:43 47.569792 -122.214278 339 7608ft 188kts
09-Dec-17 10:44 47.620914 -122.227522 346 6328ft 185kts
09-Dec-17 10:45 47.653743 -122.272610 287 4922ft 168kts
09-Dec-17 10:46 47.626222 -122.309695 182 3585ft 158kts
09-Dec-17 10:47 47.582683 -122.309988 178 2738ft 152kts
09-Dec-17 10:48 47.542252 -122.310321 179 1969ft 140kts
09-Dec-17 10:49 47.503326 -122.310662 179 1230ft 139kts
09-Dec-17 10:50 47.464556 -122.310985 179 485ft 138kts
09-Dec-17 10:51 47.446642 -122.309406 150 441ft 21kts
09-Dec-17 10:52 47.445765 -122.306583 87 441ft 0kts
09-Dec-17 10:53 47.445802 -122.304849 89 441ft 7kts
09-Dec-17 10:54 47.445802 -122.304779 89 441ft 0kts
09-Dec-17 10:55 47.445802 -122.304779 89 441ft 0kts
09-Dec-17 10:56 47.445802 -122.304779 89 441ft 0kts
09-Dec-17 10:57 47.445802 -122.304779 89 441ft 0kts
09-Dec-17 10:58 47.445802 -122.304779 89 441ft 0kts
09-Dec-17 10:59 47.445802 -122.304779 89 441ft 0kts
09-Dec-17 11:00 47.445802 -122.304779 89 441ft 0kts
09-Dec-17 11:01 47.445802 -122.304779 89 441ft 0kts
09-Dec-17 11:02 47.445802 -122.304779 89 441ft 0kts
09-Dec-17 11:04 47.445802 -122.304779 89 441ft 0kts
09-Dec-17 11:05 47.445802 -122.304779 89 441ft 0kts

Navigation Log

Ident Type
Flight plan parsing failed, navigation log unavailable